createdAt,value
2018-07-07T00:00:18.982Z,101655.79
2018-07-07T00:02:47.395Z,101658.81
2018-07-07T00:05:15.779Z,101656.61
2018-07-07T00:07:44.207Z,101660.90
2018-07-07T00:10:13.518Z,101657.39
2018-07-07T00:12:42.438Z,101657.36
2018-07-07T00:15:15.297Z,101658.60
2018-07-07T00:17:44.111Z,101655.09
2018-07-07T00:20:12.671Z,101662.89
2018-07-07T00:22:41.075Z,101653.75
2018-07-07T00:25:16.798Z,101662.42
2018-07-07T00:27:46.127Z,101662.83
2018-07-07T00:30:14.530Z,101664.14
2018-07-07T00:32:43.062Z,101660.63
2018-07-07T00:35:11.671Z,101668.02
2018-07-07T00:37:40.054Z,101666.25
2018-07-07T00:40:09.247Z,101669.73
2018-07-07T00:42:38.114Z,101669.70
2018-07-07T00:45:06.519Z,101669.27
2018-07-07T00:47:34.899Z,101666.62
2018-07-07T00:50:03.542Z,101674.02
2018-07-07T00:52:31.921Z,101668.72
2018-07-07T00:55:00.321Z,101672.17
2018-07-07T00:57:28.698Z,101677.39
2018-07-07T00:59:57.100Z,101671.23
2018-07-07T01:02:25.482Z,101678.16
2018-07-07T01:04:54.986Z,101683.38
2018-07-07T01:07:24.058Z,101682.91
2018-07-07T01:09:52.566Z,101673.70
2018-07-07T01:12:20.947Z,101673.23
2018-07-07T01:14:49.731Z,101670.13
2018-07-07T01:17:18.186Z,101672.26
2018-07-07T01:19:46.590Z,101662.58
2018-07-07T01:22:15.259Z,101666.02
2018-07-07T01:24:44.068Z,101665.55
2018-07-07T01:27:12.440Z,101662.00
2018-07-07T01:29:41.771Z,101661.09
2018-07-07T01:32:10.310Z,101664.52
2018-07-07T01:34:38.702Z,101669.27
2018-07-07T01:37:07.302Z,101667.45
2018-07-07T01:39:35.702Z,101668.28
2018-07-07T01:42:04.095Z,101673.45
2018-07-07T01:44:32.467Z,101665.59
2018-07-07T01:47:00.867Z,101665.12
2018-07-07T01:49:29.248Z,101670.30
2018-07-07T01:51:57.682Z,101672.03
2018-07-07T01:54:26.070Z,101670.73
2018-07-07T01:56:54.470Z,101669.82
2018-07-07T01:59:22.846Z,101671.98
2018-07-07T02:01:51.274Z,101667.17
2018-07-07T02:04:20.262Z,101667.17
2018-07-07T02:06:48.676Z,101667.56
2018-07-07T02:09:17.113Z,101664.05
2018-07-07T02:11:45.470Z,101664.44
2018-07-07T02:14:14.114Z,101657.44
2018-07-07T02:16:42.671Z,101656.49
2018-07-07T02:19:11.074Z,101654.28
2018-07-07T02:21:39.452Z,101655.11
2018-07-07T02:24:07.939Z,101661.14
2018-07-07T02:26:36.315Z,101658.06
2018-07-07T02:29:04.715Z,101656.32
2018-07-07T02:31:33.095Z,101651.49
2018-07-07T02:34:01.492Z,101643.16
2018-07-07T02:36:29.935Z,101650.55
2018-07-07T02:38:58.359Z,101652.23
2018-07-07T02:41:26.762Z,101648.32
2018-07-07T02:43:55.235Z,101646.98
2018-07-07T02:46:23.669Z,101648.72
2018-07-07T02:48:52.036Z,101651.71
2018-07-07T02:51:20.468Z,101650.80
2018-07-07T02:53:48.839Z,101655.14
2018-07-07T02:56:17.237Z,101652.09
2018-07-07T02:58:45.834Z,101656.00
2018-07-07T03:01:14.232Z,101660.78
2018-07-07T03:03:42.606Z,101659.91
2018-07-07T03:06:11.212Z,101666.01
2018-07-07T03:08:39.607Z,101659.05
2018-07-07T03:11:08.004Z,101655.14
2018-07-07T03:13:36.402Z,101662.14
2018-07-07T03:16:04.827Z,101665.61
2018-07-07T03:18:33.203Z,101665.66
2018-07-07T03:21:01.598Z,101661.80
2018-07-07T03:23:29.967Z,101670.53
2018-07-07T03:25:58.379Z,101665.36
2018-07-07T03:28:26.756Z,101665.41
2018-07-07T03:30:55.146Z,101666.78
2018-07-07T03:33:23.527Z,101669.48
2018-07-07T03:35:51.943Z,101672.18
2018-07-07T03:38:20.326Z,101671.44
2018-07-07T03:40:48.701Z,101669.82
2018-07-07T03:43:17.110Z,101681.24
2018-07-07T03:45:45.482Z,101682.23
2018-07-07T03:48:13.905Z,101682.36
2018-07-07T03:50:42.414Z,101680.70
2018-07-07T03:53:10.810Z,101678.16
2018-07-07T03:55:39.187Z,101678.63
2018-07-07T03:58:07.584Z,101676.09
2018-07-07T04:00:35.971Z,101681.39
2018-07-07T04:03:04.370Z,101680.56
2018-07-07T04:05:32.743Z,101682.80
2018-07-07T04:08:01.168Z,101687.70
2018-07-07T04:10:29.542Z,101693.46
2018-07-07T04:12:57.943Z,101698.31
2018-07-07T04:15:26.323Z,101691.83
2018-07-07T04:17:54.718Z,101690.59
2018-07-07T04:20:23.092Z,101687.17
2018-07-07T04:22:51.487Z,101692.56
2018-07-07T04:25:20.031Z,101694.02
2018-07-07T04:27:48.484Z,101685.02
2018-07-07T04:30:16.903Z,101687.34
2018-07-07T04:32:45.275Z,101686.18
2018-07-07T04:35:13.675Z,101684.03
2018-07-07T04:37:42.052Z,101685.33
2018-07-07T04:40:10.447Z,101684.02
2018-07-07T04:42:38.819Z,101685.73
2018-07-07T04:45:07.235Z,101686.99
2018-07-07T04:47:35.750Z,101686.97
2018-07-07T04:50:04.147Z,101682.17
2018-07-07T04:52:32.516Z,101685.66
2018-07-07T04:55:00.934Z,101682.17
2018-07-07T04:57:29.306Z,101690.61
2018-07-07T04:59:57.678Z,101688.58
2018-07-07T05:02:26.074Z,101684.75
2018-07-07T05:04:54.446Z,101683.64
2018-07-07T05:07:22.862Z,101685.52
2018-07-07T05:09:51.247Z,101685.65
2018-07-07T05:12:19.646Z,101687.14
2018-07-07T05:14:48.043Z,101687.70
2018-07-07T05:17:17.713Z,101682.62
2018-07-07T05:19:46.059Z,101688.38
2018-07-07T05:22:14.475Z,101675.75
2018-07-07T05:24:42.852Z,101680.16
2018-07-07T05:27:11.292Z,101683.22
2018-07-07T05:29:39.671Z,101689.39
2018-07-07T05:32:08.086Z,101683.24
2018-07-07T05:34:36.614Z,101683.27
2018-07-07T05:37:05.027Z,101687.20
2018-07-07T05:39:33.398Z,101688.05
2018-07-07T05:42:01.769Z,101692.00
2018-07-07T05:44:30.166Z,101691.53
2018-07-07T05:46:58.539Z,101688.49
2018-07-07T05:49:26.932Z,101686.30
2018-07-07T05:51:55.315Z,101688.00
2018-07-07T05:54:23.712Z,101690.66
2018-07-07T05:56:52.087Z,101690.19
2018-07-07T05:59:20.483Z,101703.31
2018-07-07T06:01:48.863Z,101691.94
2018-07-07T06:04:17.258Z,101698.08
2018-07-07T06:06:45.643Z,101697.19
2018-07-07T06:09:14.252Z,101696.70
2018-07-07T06:11:42.794Z,101700.19
2018-07-07T06:14:11.195Z,101690.09
2018-07-07T06:16:39.577Z,101700.55
2018-07-07T06:19:07.958Z,101692.19
2018-07-07T06:21:36.364Z,101697.02
2018-07-07T06:24:04.931Z,101703.53
2018-07-07T06:26:33.459Z,101705.69
2018-07-07T06:29:01.732Z,101709.98
2018-07-07T06:31:30.575Z,101708.17
2018-07-07T06:33:59.135Z,101705.52
2018-07-07T06:36:27.535Z,101713.37
2018-07-07T06:38:55.907Z,101705.41
2018-07-07T06:41:24.310Z,101706.70
2018-07-07T06:43:54.834Z,101713.22
2018-07-07T06:46:23.238Z,101706.09
2018-07-07T06:48:51.612Z,101706.51
2018-07-07T06:51:20.146Z,101702.94
2018-07-07T06:53:48.566Z,101704.22
2018-07-07T06:56:16.963Z,101704.15
2018-07-07T06:58:45.339Z,101712.02
2018-07-07T07:01:13.754Z,101714.13
2018-07-07T07:03:42.247Z,101717.55
2018-07-07T07:06:10.632Z,101714.00
2018-07-07T07:08:39.085Z,101722.24
2018-07-07T07:11:07.463Z,101720.42
2018-07-07T07:13:35.862Z,101723.09
2018-07-07T07:16:04.243Z,101722.69
2018-07-07T07:18:32.650Z,101722.32
2018-07-07T07:21:01.037Z,101718.45
2018-07-07T07:23:29.458Z,101722.06
2018-07-07T07:25:57.895Z,101721.20
2018-07-07T07:28:26.298Z,101728.23
2018-07-07T07:30:54.675Z,101726.92
2018-07-07T07:33:23.075Z,101726.39
2018-07-07T07:35:51.456Z,101720.22
2018-07-07T07:38:19.935Z,101728.95
2018-07-07T07:40:48.316Z,101720.09
2018-07-07T07:43:16.744Z,101727.52
2018-07-07T07:45:45.128Z,101726.14
2018-07-07T07:48:13.643Z,101726.50
2018-07-07T07:50:42.027Z,101733.38
2018-07-07T07:53:10.427Z,101734.09
2018-07-07T07:55:38.798Z,101722.52
2018-07-07T07:58:07.226Z,101727.14
2018-07-07T08:00:35.622Z,101726.44
2018-07-07T08:03:03.999Z,101720.41
2018-07-07T08:05:32.407Z,101724.56
2018-07-07T08:08:00.858Z,101724.72
2018-07-07T08:10:29.265Z,101726.30
2018-07-07T08:12:57.679Z,101735.42
2018-07-07T08:15:26.079Z,101736.67
2018-07-07T08:17:54.446Z,101739.83
2018-07-07T08:20:22.847Z,101746.52
2018-07-07T08:22:51.224Z,101739.11
2018-07-07T08:25:19.620Z,101749.23
2018-07-07T08:27:48.007Z,101741.84
2018-07-07T08:30:16.431Z,101742.76
2018-07-07T08:32:44.812Z,101748.55
2018-07-07T08:35:13.212Z,101740.16
2018-07-07T08:37:41.583Z,101744.48
2018-07-07T08:40:11.984Z,101738.31
2018-07-07T08:42:40.360Z,101745.66
2018-07-07T08:45:08.785Z,101741.89
2018-07-07T08:47:37.182Z,101738.39
2018-07-07T08:50:05.580Z,101744.53
2018-07-07T08:52:33.988Z,101742.81
2018-07-07T08:55:02.359Z,101741.58
2018-07-07T08:57:31.406Z,101744.67
2018-07-07T09:00:00.180Z,101739.06
2018-07-07T09:02:28.583Z,101738.27
2018-07-07T09:04:56.987Z,101739.27
2018-07-07T09:07:25.415Z,101735.02
2018-07-07T09:09:53.786Z,101744.80
2018-07-07T09:12:22.187Z,101733.83
2018-07-07T09:14:50.566Z,101731.58
2018-07-07T09:17:18.939Z,101729.22
2018-07-07T09:19:47.348Z,101731.66
2018-07-07T09:22:15.718Z,101733.57
2018-07-07T09:24:44.148Z,101728.03
2018-07-07T09:27:12.532Z,101731.75
2018-07-07T09:29:40.926Z,101726.63
2018-07-07T09:32:09.306Z,101733.48
2018-07-07T09:34:37.707Z,101723.13
2018-07-07T09:37:06.083Z,101731.76
2018-07-07T09:39:34.483Z,101722.83
2018-07-07T09:42:02.854Z,101732.09
2018-07-07T09:44:31.259Z,101725.14
2018-07-07T09:46:59.650Z,101729.18
2018-07-07T09:49:28.061Z,101728.80
2018-07-07T09:51:56.427Z,101726.19
2018-07-07T09:54:24.832Z,101724.47
2018-07-07T09:56:53.499Z,101721.02
2018-07-07T09:59:21.879Z,101720.12
2018-07-07T10:01:50.324Z,101715.72
2018-07-07T10:04:18.659Z,101726.70
2018-07-07T10:06:47.056Z,101723.15
2018-07-07T10:09:15.504Z,101723.11
2018-07-07T10:11:44.215Z,101720.86
2018-07-07T10:14:12.586Z,101723.82
2018-07-07T10:16:41.000Z,101731.20
2018-07-07T10:19:09.382Z,101723.69
2018-07-07T10:21:37.793Z,101732.40
2018-07-07T10:24:06.170Z,101732.78
2018-07-07T10:26:34.550Z,101719.55
2018-07-07T10:29:02.956Z,101727.86
2018-07-07T10:31:31.365Z,101729.03
2018-07-07T10:33:59.935Z,101717.87
2018-07-07T10:36:30.706Z,101708.83
2018-07-07T10:39:02.351Z,101706.87
2018-07-07T10:41:32.983Z,101710.72
2018-07-07T10:44:01.375Z,101698.70
2018-07-07T10:46:29.751Z,101715.37
2018-07-07T10:48:58.274Z,101718.84
2018-07-07T10:51:26.559Z,101714.78
2018-07-07T10:53:55.119Z,101713.38
2018-07-07T10:56:23.495Z,101711.48
2018-07-07T10:58:51.972Z,101722.84
2018-07-07T11:01:20.381Z,101725.63
2018-07-07T11:03:48.795Z,101731.52
2018-07-07T11:06:17.174Z,101725.09
2018-07-07T11:08:45.582Z,101728.01
2018-07-07T11:11:13.991Z,101734.41
2018-07-07T11:13:42.381Z,101735.90
2018-07-07T11:16:10.783Z,101734.30
2018-07-07T11:18:39.155Z,101731.56
2018-07-07T11:21:07.543Z,101738.53
2018-07-07T11:23:35.920Z,101748.68
2018-07-07T11:26:04.372Z,101728.02
2018-07-07T11:28:32.958Z,101738.19
2018-07-07T11:31:01.379Z,101741.34
2018-07-07T11:33:29.750Z,101732.11
2018-07-07T11:35:58.198Z,101735.20
2018-07-07T11:38:26.586Z,101738.19
2018-07-07T11:40:54.991Z,101727.09
2018-07-07T11:43:23.367Z,101725.73
2018-07-07T11:45:51.742Z,101723.95
2018-07-07T11:48:20.130Z,101717.71
2018-07-07T11:50:48.494Z,101730.45
2018-07-07T11:53:17.082Z,101724.56
2018-07-07T11:55:45.455Z,101724.38
2018-07-07T11:58:13.847Z,101714.46
2018-07-07T12:00:42.231Z,101717.38
2018-07-07T12:03:10.639Z,101714.17
2018-07-07T12:05:39.011Z,101708.43
2018-07-07T12:08:13.875Z,101709.76
2018-07-07T12:10:35.830Z,101708.43
2018-07-07T12:13:04.226Z,101708.43
2018-07-07T12:15:32.594Z,101699.08
2018-07-07T12:18:01.040Z,101715.34
2018-07-07T12:20:29.427Z,101706.05
2018-07-07T12:22:57.847Z,101700.30
2018-07-07T12:25:26.223Z,101698.58
2018-07-07T12:27:54.598Z,101698.48
2018-07-07T12:30:23.042Z,101697.02
2018-07-07T12:32:51.438Z,101696.85
2018-07-07T12:35:19.834Z,101706.05
2018-07-07T12:37:48.211Z,101704.25
2018-07-07T12:40:16.619Z,101692.70
2018-07-07T12:42:45.033Z,101687.22
2018-07-07T12:45:13.450Z,101683.06
2018-07-07T12:47:41.828Z,101684.22
2018-07-07T12:50:10.284Z,101689.79
2018-07-07T12:52:38.659Z,101691.02
2018-07-07T12:55:07.178Z,101684.73
2018-07-07T12:57:36.057Z,101688.68
2018-07-07T13:00:04.520Z,101688.97
2018-07-07T13:02:32.890Z,101683.52
2018-07-07T13:05:01.287Z,101688.64
2018-07-07T13:07:29.691Z,101684.55
2018-07-07T13:09:58.094Z,101677.41
2018-07-07T13:12:26.466Z,101690.12
2018-07-07T13:14:54.871Z,101677.50
2018-07-07T13:17:23.343Z,101676.93
2018-07-07T13:19:51.714Z,101680.98
2018-07-07T13:22:20.110Z,101691.66
2018-07-07T13:24:48.527Z,101679.30
2018-07-07T13:27:16.934Z,101680.98
2018-07-07T13:29:45.340Z,101686.23
2018-07-07T13:32:13.740Z,101683.53
2018-07-07T13:34:42.115Z,101688.38
2018-07-07T13:37:10.515Z,101683.38
2018-07-07T13:39:40.438Z,101683.23
2018-07-07T13:42:10.083Z,101680.53
2018-07-07T13:44:39.758Z,101684.95
2018-07-07T13:47:10.783Z,101682.77
2018-07-07T13:49:39.685Z,101682.77
2018-07-07T13:52:08.096Z,101689.38
2018-07-07T13:54:36.759Z,101676.39
2018-07-07T13:57:05.330Z,101675.89
2018-07-07T13:59:33.739Z,101680.63
2018-07-07T14:02:02.127Z,101683.64
2018-07-07T14:04:30.503Z,101690.64
2018-07-07T14:06:59.935Z,101687.83
2018-07-07T14:09:28.378Z,101692.52
2018-07-07T14:11:56.735Z,101692.98
2018-07-07T14:14:25.200Z,101686.85
2018-07-07T14:16:53.650Z,101692.64
2018-07-07T14:19:22.031Z,101693.10
2018-07-07T14:21:50.407Z,101689.52
2018-07-07T14:24:18.799Z,101691.66
2018-07-07T14:26:47.911Z,101687.16
2018-07-07T14:29:16.935Z,101686.66
2018-07-07T14:31:45.312Z,101695.03
2018-07-07T14:34:13.711Z,101691.50
2018-07-07T14:36:42.087Z,101688.38
2018-07-07T14:39:10.495Z,101685.67
2018-07-07T14:41:38.906Z,101689.08
2018-07-07T14:44:07.383Z,101696.55
2018-07-07T14:46:36.091Z,101685.80
2018-07-07T14:49:04.676Z,101667.02
2018-07-07T14:51:33.137Z,101689.58
2018-07-07T14:54:01.534Z,101705.13
2018-07-07T14:56:29.970Z,101696.28
2018-07-07T14:58:58.348Z,101689.67
2018-07-07T15:01:26.747Z,101684.42
2018-07-07T15:03:55.135Z,101683.56
2018-07-07T15:06:23.534Z,101687.91
2018-07-07T15:08:51.928Z,101679.50
2018-07-07T15:11:20.388Z,101677.53
2018-07-07T15:13:48.780Z,101679.64
2018-07-07T15:16:17.181Z,101678.59
2018-07-07T15:18:45.576Z,101678.08
2018-07-07T15:21:13.978Z,101678.94
2018-07-07T15:23:42.349Z,101676.35
2018-07-07T15:26:10.794Z,101677.61
2018-07-07T15:28:39.178Z,101677.56
2018-07-07T15:31:07.632Z,101685.08
2018-07-07T15:33:36.008Z,101676.97
2018-07-07T15:36:04.395Z,101684.61
2018-07-07T15:38:32.790Z,101685.38
2018-07-07T15:41:01.157Z,101677.19
2018-07-07T15:43:29.565Z,101685.95
2018-07-07T15:45:57.995Z,101691.19
2018-07-07T15:48:26.379Z,101679.56
2018-07-07T15:50:54.746Z,101684.89
2018-07-07T15:53:23.143Z,101688.71
2018-07-07T15:55:51.518Z,101688.31
2018-07-07T15:58:19.911Z,101688.71
2018-07-07T16:00:48.287Z,101691.97
2018-07-07T16:03:16.678Z,101692.23
2018-07-07T16:05:45.059Z,101694.38
2018-07-07T16:08:13.479Z,101702.80
2018-07-07T16:10:41.859Z,101701.16
2018-07-07T16:13:10.258Z,101700.86
2018-07-07T16:15:38.646Z,101702.35
2018-07-07T16:18:07.051Z,101703.03
2018-07-07T16:20:35.439Z,101702.48
2018-07-07T16:23:03.870Z,101693.45
2018-07-07T16:25:32.251Z,101703.32
2018-07-07T16:28:00.660Z,101696.74
2018-07-07T16:30:29.047Z,101691.15
2018-07-07T16:32:57.423Z,101699.69
2018-07-07T16:35:25.822Z,101700.41
2018-07-07T16:37:54.203Z,101700.67
2018-07-07T16:40:22.617Z,101703.98
2018-07-07T16:42:55.579Z,101704.61
2018-07-07T16:45:23.982Z,101704.58
2018-07-07T16:47:52.355Z,101703.05
2018-07-07T16:50:20.760Z,101707.84
2018-07-07T16:52:49.141Z,101712.31
2018-07-07T16:55:17.557Z,101708.55
2018-07-07T16:57:46.017Z,101708.61
2018-07-07T17:00:14.431Z,101707.77
2018-07-07T17:02:42.862Z,101713.88
2018-07-07T17:05:11.284Z,101707.18
2018-07-07T17:07:39.683Z,101704.89
2018-07-07T17:10:08.122Z,101710.01
2018-07-07T17:12:36.532Z,101706.86
2018-07-07T17:15:04.919Z,101711.88
2018-07-07T17:17:34.190Z,101702.59
2018-07-07T17:20:05.467Z,101711.08
2018-07-07T17:22:34.084Z,101711.73
2018-07-07T17:25:02.469Z,101710.33
2018-07-07T17:27:30.899Z,101699.27
2018-07-07T17:29:59.879Z,101701.63
2018-07-07T17:32:28.550Z,101700.72
2018-07-07T17:34:57.258Z,101696.80
2018-07-07T17:37:25.667Z,101704.77
2018-07-07T17:39:54.063Z,101702.85
2018-07-07T17:42:22.496Z,101706.16
2018-07-07T17:44:51.211Z,101706.19
2018-07-07T17:47:19.615Z,101709.66
2018-07-07T17:49:47.986Z,101701.70
2018-07-07T17:52:20.137Z,101698.08
2018-07-07T17:54:48.536Z,101690.98
2018-07-07T17:57:16.930Z,101693.03
2018-07-07T17:59:45.435Z,101700.30
2018-07-07T18:02:13.809Z,101701.13
2018-07-07T18:04:42.345Z,101699.31
2018-07-07T18:07:10.726Z,101699.13
2018-07-07T18:09:39.147Z,101708.72
2018-07-07T18:12:07.755Z,101705.63
2018-07-07T18:14:36.178Z,101710.81
2018-07-07T18:17:04.567Z,101712.70
2018-07-07T18:19:32.964Z,101710.11
2018-07-07T18:22:01.347Z,101714.02
2018-07-07T18:24:29.826Z,101714.73
2018-07-07T18:26:58.202Z,101714.84
2018-07-07T18:29:26.623Z,101718.79
2018-07-07T18:31:55.010Z,101711.22
2018-07-07T18:34:23.439Z,101709.76
2018-07-07T18:36:51.815Z,101711.75
2018-07-07T18:39:20.214Z,101715.09
2018-07-07T18:41:48.603Z,101714.05
2018-07-07T18:44:16.980Z,101711.22
2018-07-07T18:46:45.399Z,101714.53
2018-07-07T18:49:13.782Z,101716.99
2018-07-07T18:51:42.183Z,101717.72
2018-07-07T18:54:10.550Z,101725.00
2018-07-07T18:56:39.003Z,101724.31
2018-07-07T18:59:07.386Z,101717.89
2018-07-07T19:01:35.832Z,101718.54
2018-07-07T19:04:04.209Z,101718.76
2018-07-07T19:06:32.607Z,101722.03
2018-07-07T19:09:01.006Z,101726.19
2018-07-07T19:11:29.600Z,101722.90
2018-07-07T19:13:57.982Z,101722.61
2018-07-07T19:16:33.813Z,101729.89
2018-07-07T19:19:02.199Z,101727.42
2018-07-07T19:21:35.963Z,101728.01
2018-07-07T19:24:09.767Z,101724.59
2018-07-07T19:26:43.463Z,101726.04
2018-07-07T19:29:11.843Z,101730.47
2018-07-07T19:31:45.700Z,101735.86
2018-07-07T19:34:19.562Z,101728.94
2018-07-07T19:36:53.230Z,101729.02
2018-07-07T19:39:21.607Z,101731.80
2018-07-07T19:41:49.984Z,101732.38
2018-07-07T19:44:18.387Z,101732.03
2018-07-07T19:46:46.763Z,101730.38
2018-07-07T19:49:15.163Z,101730.91
2018-07-07T19:51:43.543Z,101734.12
2018-07-07T19:54:11.940Z,101734.64
2018-07-07T19:56:40.314Z,101734.77
2018-07-07T19:59:08.843Z,101735.29
2018-07-07T20:01:37.811Z,101735.41
2018-07-07T20:04:06.211Z,101738.61
2018-07-07T20:06:34.590Z,101736.94
2018-07-07T20:09:03.011Z,101739.72
2018-07-07T20:11:31.394Z,101745.96
2018-07-07T20:13:59.890Z,101744.28
2018-07-07T20:16:39.678Z,101748.28
2018-07-07T20:19:19.527Z,101747.47
2018-07-07T20:22:08.282Z,101746.61
2018-07-07T20:24:37.997Z,101742.73
2018-07-07T20:27:12.779Z,101751.56
2018-07-07T20:29:41.178Z,101750.77
2018-07-07T20:32:14.887Z,101753.87
2018-07-07T20:34:43.286Z,101751.27
2018-07-07T20:37:11.675Z,101755.68
2018-07-07T20:39:40.090Z,101749.58
2018-07-07T20:42:08.471Z,101751.80
2018-07-07T20:44:36.883Z,101752.29
2018-07-07T20:47:05.489Z,101754.93
2018-07-07T20:49:33.881Z,101748.41
2018-07-07T20:52:02.276Z,101747.55
2018-07-07T20:54:30.655Z,101752.44
2018-07-07T20:56:59.056Z,101745.02
2018-07-07T20:59:29.147Z,101748.10
2018-07-07T21:01:57.562Z,101745.95
2018-07-07T21:04:25.947Z,101751.64
2018-07-07T21:06:54.519Z,101751.22
2018-07-07T21:09:22.978Z,101750.31
2018-07-07T21:11:51.383Z,101749.87
2018-07-07T21:14:19.812Z,101745.50
2018-07-07T21:16:48.244Z,101751.19
2018-07-07T21:19:16.625Z,101747.69
2018-07-07T21:21:45.025Z,101743.70
2018-07-07T21:24:13.407Z,101752.02
2018-07-07T21:26:41.855Z,101747.20
2018-07-07T21:29:10.230Z,101753.34
2018-07-07T21:31:38.615Z,101756.35
2018-07-07T21:34:07.014Z,101750.18
2018-07-07T21:36:35.399Z,101751.91
2018-07-07T21:39:04.537Z,101748.37
2018-07-07T21:41:32.919Z,101754.93
2018-07-07T21:44:01.319Z,101754.03
2018-07-07T21:46:29.711Z,101755.80
2018-07-07T21:48:58.119Z,101755.34
2018-07-07T21:51:26.495Z,101755.80
2018-07-07T21:53:54.955Z,101754.03
2018-07-07T21:56:23.302Z,101756.70
2018-07-07T21:58:55.862Z,101754.93
2018-07-07T22:01:46.576Z,101754.52
2018-07-07T22:04:20.415Z,101760.23
2018-07-07T22:07:57.979Z,101759.37
2018-07-07T22:10:26.399Z,101753.69
2018-07-07T22:12:54.783Z,101755.91
2018-07-07T22:15:23.180Z,101750.22
2018-07-07T22:17:51.562Z,101755.07
2018-07-07T22:20:29.799Z,101759.47
2018-07-07T22:22:58.182Z,101763.88
2018-07-07T22:25:26.579Z,101756.88
2018-07-07T22:27:54.954Z,101764.81
2018-07-07T22:30:23.354Z,101764.84
2018-07-07T22:32:51.730Z,101762.69
2018-07-07T22:35:25.459Z,101758.34
2018-07-07T22:37:53.827Z,101755.74
2018-07-07T22:40:22.231Z,101757.95
2018-07-07T22:42:50.608Z,101753.16
2018-07-07T22:45:19.011Z,101719.94
2018-07-07T22:47:47.386Z,101757.62
2018-07-07T22:50:15.783Z,101754.11
2018-07-07T22:52:44.159Z,101756.77
2018-07-07T22:55:12.559Z,101754.61
2018-07-07T22:57:40.934Z,101748.95
2018-07-07T23:00:09.339Z,101749.41
2018-07-07T23:02:37.717Z,101742.85
2018-07-07T23:05:06.406Z,101744.22
2018-07-07T23:07:34.819Z,101746.84
2018-07-07T23:10:03.194Z,101747.31
2018-07-07T23:12:31.594Z,101741.18
2018-07-07T23:14:59.968Z,101745.15
2018-07-07T23:17:28.367Z,101754.80
2018-07-07T23:19:56.743Z,101755.70
2018-07-07T23:22:36.941Z,101760.11
2018-07-07T23:25:05.322Z,101753.57
2018-07-07T23:27:33.714Z,101756.21
2018-07-07T23:30:02.091Z,101762.35
2018-07-07T23:32:30.485Z,101765.45
2018-07-07T23:34:58.854Z,101763.70
2018-07-07T23:37:27.246Z,101763.70
2018-07-07T23:39:55.624Z,101762.84
2018-07-07T23:42:24.014Z,101762.42
2018-07-07T23:44:52.383Z,101765.91
2018-07-07T23:47:20.778Z,101765.95
2018-07-07T23:49:49.155Z,101767.67
2018-07-07T23:52:17.547Z,101762.00
2018-07-07T23:54:45.922Z,101761.99
2018-07-07T23:57:14.318Z,101763.31
2018-07-07T23:59:42.695Z,101766.38
